Search for airport 
image banner adimage banner ad
image banner ad

SVCG - Carbones Del Guasare

Located in Zulia, Venezuela

ICAO - SVCG, IATA - CUV

Data provided by Airmate  

General information

Coordinates: N11°0'29" W72°16'26"
Elevation is 99 feet MSL.
 
Rated:
View ratings: [VIEW]


View others Airports in Zulia

Operational data

Open for public use
Current time UTC:
Current local time:
Weather at : SVMC - Maracaibo / La Chinita Intl ( 78 km )
METAR: SVMC 062202Z AUTO 15003KT NCD 32/23 Q1008
TAF: TAF SVMC 061600Z 0612/0712 11002KT 9999 SCT100 TX35/0619Z TN25/0509Z BECMG 0612/0616 14005KT 9000 -DZ BKN100
View NOTAMs / SUP AIP / TFR affecting this airport [VIEW]
Communications frequencies: [VIEW]

Runways:

RWY identifierQFULength (ft)Width (ft)SurfaceLDA (ft)
1093°345070ASP
28273°345070ASP

Airport contact information

Address: Zulia Venezuela

Satellite view of SVCG